Time;durP1;ratioP1;P1;durP2;ratioP2;P2;SDS_P1;SDS_P2;PMS_P1;PMS_P2;Temp;Humidity;BMP_temperature;BMP_pressure;BME280_temperature;BME280_humidity;BME280_pressure;Samples;Min_cycle;Max_cycle;Signal;HPM_P1;HPM_P2
2021/05/25 00:00:28;;;;;;;3.80;1.70;;;;;;;7.43;100.00;100238.97;5033346;28;20045;-56
2021/05/25 00:02:56;;;;;;;2.42;1.52;;;;;;;7.57;100.00;100235.75;5038458;28;20041;-57
2021/05/25 00:05:27;;;;;;;2.33;1.50;;;;;;;7.48;100.00;100239.34;5042118;28;20058;-58
2021/05/25 00:07:55;;;;;;;3.70;1.70;;;;;;;7.48;100.00;100242.00;5038226;28;20060;-58
2021/05/25 00:10:23;;;;;;;2.80;1.45;;;;;;;7.35;100.00;100242.41;5043340;28;20045;-58
2021/05/25 00:12:50;;;;;;;4.05;1.45;;;;;;;7.37;100.00;100248.38;5043122;28;20041;-58
2021/05/25 00:15:19;;;;;;;7.78;1.45;;;;;;;7.35;100.00;100231.78;5042686;28;20053;-58
2021/05/25 00:17:48;;;;;;;4.60;1.77;;;;;;;7.24;100.00;100252.31;5044330;28;20049;-58
2021/05/25 00:20:17;;;;;;;4.10;1.73;;;;;;;7.27;100.00;100242.34;5044047;28;20056;-58
2021/05/25 00:22:44;;;;;;;4.07;1.50;;;;;;;7.30;100.00;100234.06;5040605;28;20045;-57
2021/05/25 00:25:13;;;;;;;5.35;1.98;;;;;;;7.32;100.00;100240.91;5043606;28;20594;-58
2021/05/25 00:27:42;;;;;;;1.90;1.40;;;;;;;7.17;100.00;100238.00;5044156;28;20071;-58
2021/05/25 00:30:11;;;;;;;6.15;1.83;;;;;;;7.28;100.00;100239.53;5044840;28;20048;-58
2021/05/25 00:32:39;;;;;;;4.55;2.00;;;;;;;7.18;100.00;100231.66;5040872;28;20781;-58
2021/05/25 00:35:08;;;;;;;3.30;1.88;;;;;;;7.29;100.00;100238.56;5041834;28;20045;-57
2021/05/25 00:37:35;;;;;;;4.07;1.60;;;;;;;7.33;100.00;100233.75;5042957;28;20053;-58
2021/05/25 00:40:04;;;;;;;2.95;1.65;;;;;;;7.30;100.00;100239.38;5043784;28;20552;-58
2021/05/25 00:42:31;;;;;;;4.28;2.08;;;;;;;7.44;100.00;100245.94;5042656;28;20410;-58
2021/05/25 00:45:00;;;;;;;5.22;2.08;;;;;;;7.38;100.00;100239.44;5045226;28;20050;-58
2021/05/25 00:47:28;;;;;;;4.40;2.67;;;;;;;7.54;100.00;100236.91;5042255;28;20367;-57
2021/05/25 00:49:56;;;;;;;2.15;1.58;;;;;;;7.54;100.00;100242.22;5042599;28;20041;-58
2021/05/25 00:52:24;;;;;;;4.35;2.03;;;;;;;7.46;100.00;100244.81;5043603;28;20095;-58
2021/05/25 00:54:51;;;;;;;4.07;1.85;;;;;;;7.59;100.00;100249.69;5041719;28;20045;-57
2021/05/25 00:57:19;;;;;;;7.07;1.92;;;;;;;7.54;100.00;100247.53;5041878;28;20048;-57
2021/05/25 00:59:46;;;;;;;4.88;2.00;;;;;;;7.55;100.00;100246.50;5042266;28;20038;-58
2021/05/25 01:02:14;;;;;;;2.40;1.90;;;;;;;7.52;100.00;100246.84;5042094;28;20049;-58
2021/05/25 01:04:41;;;;;;;5.20;1.83;;;;;;;7.73;100.00;100249.09;5039414;28;20038;-58
2021/05/25 01:07:10;;;;;;;6.88;2.05;;;;;;;7.79;100.00;100252.13;5044166;28;20045;-59
2021/05/25 01:09:38;;;;;;;2.22;1.67;;;;;;;7.89;100.00;100253.66;5041024;28;20049;-58
2021/05/25 01:12:07;;;;;;;8.23;2.40;;;;;;;7.79;100.00;100250.28;5042096;28;20052;-57
2021/05/25 01:14:39;;;;;;;5.43;2.20;;;;;;;7.83;100.00;100254.31;5043260;28;20357;-58
2021/05/25 01:17:07;;;;;;;4.88;2.40;;;;;;;7.88;100.00;100259.13;5044037;28;20141;-62
2021/05/25 01:19:34;;;;;;;4.97;2.10;;;;;;;8.00;100.00;100251.72;5042852;28;20040;-59
2021/05/25 01:22:03;;;;;;;4.88;2.58;;;;;;;7.93;100.00;100251.53;5048201;28;20045;-58
2021/05/25 01:24:31;;;;;;;4.25;2.20;;;;;;;7.85;100.00;100256.81;5040602;28;20040;-57
2021/05/25 01:27:03;;;;;;;5.53;2.33;;;;;;;7.88;100.00;100265.31;5042052;28;20429;-57
2021/05/25 01:29:31;;;;;;;6.68;2.72;;;;;;;7.94;100.00;100263.84;5043527;28;20049;-58
2021/05/25 01:31:58;;;;;;;8.13;2.70;;;;;;;8.08;100.00;100260.56;5044084;28;20056;-57
2021/05/25 01:34:26;;;;;;;6.95;2.53;;;;;;;8.11;100.00;100270.06;5041765;28;20587;-56
2021/05/25 01:36:53;;;;;;;4.88;2.40;;;;;;;7.84;100.00;100263.97;5042233;28;20037;-56
2021/05/25 01:39:21;;;;;;;9.80;3.13;;;;;;;8.05;100.00;100263.56;5044232;28;20044;-57
2021/05/25 01:41:51;;;;;;;5.00;2.90;;;;;;;8.00;100.00;100262.38;5041071;28;20531;-58
2021/05/25 01:44:19;;;;;;;5.05;2.70;;;;;;;7.92;100.00;100264.00;5042108;28;20049;-58
2021/05/25 01:46:47;;;;;;;5.30;2.50;;;;;;;8.18;100.00;100271.09;5042751;28;20041;-58
2021/05/25 01:49:15;;;;;;;8.48;3.33;;;;;;;8.09;100.00;100277.34;5039283;28;20099;-57
2021/05/25 01:51:47;;;;;;;9.43;3.50;;;;;;;8.16;100.00;100266.91;5043331;28;20117;-58
2021/05/25 01:54:15;;;;;;;8.25;3.58;;;;;;;8.14;100.00;100264.41;5041755;28;20037;-58
2021/05/25 01:56:43;;;;;;;10.27;3.67;;;;;;;7.93;100.00;100268.31;5040307;28;20067;-58
2021/05/25 01:59:11;;;;;;;7.65;2.88;;;;;;;8.14;100.00;100267.06;5043401;28;20041;-58
2021/05/25 02:01:38;;;;;;;7.03;3.13;;;;;;;8.24;100.00;100274.94;5039959;28;20310;-58
2021/05/25 02:04:06;;;;;;;6.57;2.90;;;;;;;8.13;100.00;100280.53;5041804;28;20056;-58
2021/05/25 02:06:33;;;;;;;9.18;4.20;;;;;;;8.02;100.00;100271.81;5039068;28;20432;-56
2021/05/25 02:09:05;;;;;;;9.27;3.13;;;;;;;8.13;100.00;100285.84;5044476;28;20042;-58
2021/05/25 02:11:33;;;;;;;7.07;3.08;;;;;;;8.30;100.00;100278.78;5042137;28;20045;-59
2021/05/25 02:14:02;;;;;;;10.07;4.07;;;;;;;8.18;100.00;100286.19;5041665;28;20056;-58
2021/05/25 02:16:29;;;;;;;5.55;3.78;;;;;;;8.27;100.00;100280.75;5044779;28;20052;-58
2021/05/25 02:18:57;;;;;;;11.25;4.30;;;;;;;8.36;100.00;100278.94;5042872;28;20049;-57
2021/05/25 02:21:24;;;;;;;8.65;4.20;;;;;;;8.32;100.00;100276.75;5040101;28;20368;-57
2021/05/25 02:23:52;;;;;;;6.80;3.83;;;;;;;8.50;100.00;100284.66;5041138;28;20502;-57
2021/05/25 02:26:19;;;;;;;5.95;3.90;;;;;;;8.46;100.00;100289.47;5037170;28;20048;-57
2021/05/25 02:28:47;;;;;;;6.55;4.40;;;;;;;8.35;100.00;100290.59;5037938;28;20341;-54
2021/05/25 02:31:15;;;;;;;7.47;4.45;;;;;;;8.49;100.00;100286.50;5039001;28;20045;-57
2021/05/25 02:33:43;;;;;;;7.35;4.85;;;;;;;8.38;100.00;100289.44;5044678;28;20122;-56
2021/05/25 02:36:10;;;;;;;9.00;5.03;;;;;;;8.47;100.00;100296.47;5042607;28;20063;-56
2021/05/25 02:38:37;;;;;;;10.20;5.68;;;;;;;8.42;100.00;100298.75;5039241;28;20048;-57
2021/05/25 02:41:05;;;;;;;13.23;5.60;;;;;;;8.28;100.00;100301.03;5041814;28;20054;-58
2021/05/25 02:43:32;;;;;;;9.32;5.30;;;;;;;8.30;100.00;100310.69;5039438;28;20049;-57
2021/05/25 02:46:00;;;;;;;7.28;5.28;;;;;;;8.39;100.00;100301.72;5046508;28;20057;-58
2021/05/25 02:48:28;;;;;;;5.80;4.32;;;;;;;8.26;100.00;100305.69;5038192;28;20052;-58
2021/05/25 02:50:57;;;;;;;8.35;4.25;;;;;;;8.38;100.00;100298.25;5045432;28;20049;-58
2021/05/25 02:53:25;;;;;;;6.75;3.72;;;;;;;8.34;100.00;100307.53;5040732;28;20044;-57
2021/05/25 02:55:53;;;;;;;6.95;4.10;;;;;;;8.31;100.00;100315.00;5034715;28;20385;-58
2021/05/25 02:58:20;;;;;;;7.55;3.80;;;;;;;8.33;100.00;100316.50;5041929;28;20045;-55
2021/05/25 03:00:48;;;;;;;8.30;4.25;;;;;;;8.32;100.00;100319.34;5044037;28;20386;-56
2021/05/25 03:03:16;;;;;;;10.63;4.53;;;;;;;8.28;100.00;100317.00;5044399;28;20045;-57
2021/05/25 03:05:45;;;;;;;7.78;4.45;;;;;;;8.45;100.00;100335.72;5042360;28;20042;-58
2021/05/25 03:08:15;;;;;;;6.55;4.70;;;;;;;8.22;100.00;100319.47;5037918;28;20060;-57
2021/05/25 03:10:44;;;;;;;6.05;4.03;;;;;;;8.49;100.00;100331.75;5041832;28;20053;-57
2021/05/25 03:13:11;;;;;;;8.00;4.10;;;;;;;8.48;100.00;100340.72;5040835;28;20049;-57
2021/05/25 03:15:40;;;;;;;9.25;5.57;;;;;;;8.40;100.00;100332.66;5035079;28;20049;-57
2021/05/25 03:18:10;;;;;;;12.80;5.07;;;;;;;8.37;100.00;100336.47;5041524;28;20433;-58
2021/05/25 03:20:38;;;;;;;7.70;4.63;;;;;;;8.49;100.00;100345.06;5036037;28;20053;-57
2021/05/25 03:23:07;;;;;;;9.82;4.85;;;;;;;8.49;100.00;100342.41;5037574;28;20060;-56
2021/05/25 03:25:35;;;;;;;8.68;5.85;;;;;;;8.28;100.00;100348.09;5036798;28;20048;-57
2021/05/25 03:28:03;;;;;;;7.57;4.90;;;;;;;8.51;100.00;100351.03;5040481;28;20060;-57
2021/05/25 03:30:30;;;;;;;11.55;5.80;;;;;;;8.43;100.00;100350.97;5042248;28;20041;-56
2021/05/25 03:32:58;;;;;;;11.27;6.72;;;;;;;8.50;100.00;100353.88;5041699;28;20053;-58
2021/05/25 03:35:27;;;;;;;15.60;7.75;;;;;;;8.39;100.00;100362.94;5039905;28;20044;-58
2021/05/25 03:37:55;;;;;;;13.73;6.88;;;;;;;8.39;100.00;100363.78;5041294;28;20049;-58
2021/05/25 03:40:24;;;;;;;12.57;6.20;;;;;;;8.52;100.00;100363.38;5040353;28;20917;-58
2021/05/25 03:42:53;;;;;;;10.35;6.93;;;;;;;8.41;100.00;100360.97;5042300;28;20064;-58
2021/05/25 03:45:22;;;;;;;15.93;8.70;;;;;;;8.40;100.00;100369.94;5033976;28;20418;-58
2021/05/25 03:47:49;;;;;;;10.68;6.82;;;;;;;8.37;100.00;100359.59;5041606;28;20049;-57
2021/05/25 03:50:17;;;;;;;14.27;7.80;;;;;;;8.42;100.00;100367.91;5040610;28;20052;-58
2021/05/25 03:52:47;;;;;;;12.15;8.27;;;;;;;8.49;100.00;100374.34;5039062;28;20425;-57
2021/05/25 03:55:22;;;;;;;13.85;9.77;;;;;;;8.50;100.00;100378.63;5041949;28;20064;-57
2021/05/25 04:00:36;;;;;;;18.00;11.63;;;;;;;8.41;100.00;100384.91;5041671;28;20463;-58
2021/05/25 04:03:04;;;;;;;14.43;8.27;;;;;;;8.61;100.00;100383.66;5037452;28;20061;-57
2021/05/25 04:05:32;;;;;;;17.52;11.07;;;;;;;8.49;100.00;100400.94;5037834;28;20038;-58
2021/05/25 04:07:59;;;;;;;14.52;9.40;;;;;;;8.55;100.00;100394.97;5040583;28;20057;-58
2021/05/25 04:10:27;;;;;;;15.20;9.18;;;;;;;8.71;100.00;100396.84;5044866;28;20045;-58
2021/05/25 04:12:55;;;;;;;17.15;9.55;;;;;;;8.69;100.00;100400.66;5040065;28;20045;-57
2021/05/25 04:15:24;;;;;;;17.15;9.90;;;;;;;8.72;100.00;100403.03;5036759;28;20056;-57
2021/05/25 04:17:53;;;;;;;20.23;10.70;;;;;;;8.67;100.00;100410.66;5040502;28;20049;-57
2021/05/25 04:20:21;;;;;;;14.43;9.23;;;;;;;8.76;100.00;100418.50;5042422;28;20045;-57
2021/05/25 04:22:48;;;;;;;15.55;9.80;;;;;;;8.72;100.00;100421.66;5038630;28;20455;-57
2021/05/25 04:25:15;;;;;;;16.33;10.70;;;;;;;8.72;100.00;100427.00;5038954;28;20045;-58
2021/05/25 04:27:43;;;;;;;14.32;10.40;;;;;;;8.74;100.00;100431.13;5040121;28;20040;-57
2021/05/25 04:30:13;;;;;;;15.10;10.07;;;;;;;8.70;100.00;100435.09;5039527;28;20042;-57
2021/05/25 04:32:40;;;;;;;16.52;9.13;;;;;;;8.77;100.00;100435.31;5043769;28;20064;-57
2021/05/25 04:35:09;;;;;;;13.55;9.90;;;;;;;8.70;100.00;100436.94;5035204;28;20352;-57
2021/05/25 04:37:36;;;;;;;16.02;9.57;;;;;;;8.86;100.00;100439.69;5036743;28;20038;-57
2021/05/25 04:40:05;;;;;;;15.27;9.38;;;;;;;8.76;100.00;100450.47;5038631;28;20049;-58
2021/05/25 04:42:36;;;;;;;16.25;10.50;;;;;;;8.86;100.00;100455.66;5037931;28;20139;-57
2021/05/25 04:45:06;;;;;;;15.55;10.07;;;;;;;8.73;100.00;100457.91;5037051;28;20661;-57
2021/05/25 04:47:35;;;;;;;15.50;9.07;;;;;;;8.58;100.00;100460.38;5039927;28;20055;-58
2021/05/25 04:50:04;;;;;;;11.10;7.80;;;;;;;8.63;100.00;100474.00;5039619;28;20099;-58
2021/05/25 04:52:33;;;;;;;12.35;8.65;;;;;;;8.53;100.00;100467.97;5039697;28;20460;-58
2021/05/25 04:55:02;;;;;;;13.52;7.85;;;;;;;8.48;100.00;100476.44;5038977;28;20050;-56
2021/05/25 04:57:30;;;;;;;17.42;9.77;;;;;;;8.53;100.00;100482.09;5044244;28;20040;-54
2021/05/25 04:59:57;;;;;;;14.38;9.05;;;;;;;8.55;100.00;100493.44;5047017;28;20050;-58
2021/05/25 05:02:25;;;;;;;29.73;10.90;;;;;;;8.37;100.00;100480.16;5043773;28;20057;-58
2021/05/25 05:04:53;;;;;;;15.02;9.93;;;;;;;8.44;100.00;100477.72;5038745;28;20049;-59
2021/05/25 05:07:20;;;;;;;16.20;9.82;;;;;;;8.51;100.00;100488.59;5044503;28;20107;-60
2021/05/25 05:09:48;;;;;;;20.63;11.32;;;;;;;8.62;100.00;100504.31;5043696;28;20052;-59
2021/05/25 05:12:16;;;;;;;17.60;10.70;;;;;;;8.47;100.00;100511.19;5041471;28;20053;-60
2021/05/25 05:14:44;;;;;;;18.20;11.00;;;;;;;8.59;100.00;100508.13;5042833;28;20037;-58
2021/05/25 05:17:12;;;;;;;19.00;10.90;;;;;;;8.81;100.00;100505.06;5038156;28;20456;-58
2021/05/25 05:19:39;;;;;;;20.27;12.63;;;;;;;8.59;100.00;100513.44;5043892;28;20154;-59
2021/05/25 05:22:08;;;;;;;25.73;13.88;;;;;;;8.61;100.00;100511.44;5044529;28;20046;-58
2021/05/25 05:24:35;;;;;;;19.30;10.73;;;;;;;8.69;100.00;100515.13;5037175;28;20037;-58
2021/05/25 05:27:03;;;;;;;17.08;11.10;;;;;;;8.54;100.00;100525.53;5043592;28;20359;-58
2021/05/25 05:29:31;;;;;;;16.95;10.73;;;;;;;8.66;100.00;100534.09;5037651;28;20061;-58
2021/05/25 05:31:58;;;;;;;19.85;11.63;;;;;;;8.63;100.00;100529.09;5047537;28;20475;-57
2021/05/25 05:34:26;;;;;;;16.33;9.70;;;;;;;8.70;100.00;100519.47;5042215;28;20500;-58
2021/05/25 05:36:53;;;;;;;18.90;10.60;;;;;;;8.79;100.00;100537.19;5041571;28;20555;-58
2021/05/25 05:39:22;;;;;;;16.63;9.35;;;;;;;8.86;100.00;100540.88;5041683;28;20057;-58
2021/05/25 05:41:49;;;;;;;16.02;10.05;;;;;;;8.70;100.00;100538.94;5041561;28;20049;-58
2021/05/25 05:44:17;;;;;;;14.07;8.93;;;;;;;8.83;100.00;100540.34;5045391;28;20041;-58
2021/05/25 05:46:44;;;;;;;10.70;7.93;;;;;;;8.67;100.00;100549.06;5038421;28;20052;-58
2021/05/25 05:49:12;;;;;;;11.00;7.07;;;;;;;8.81;100.00;100553.81;5040436;28;20429;-57
2021/05/25 05:51:39;;;;;;;13.63;7.68;;;;;;;8.82;100.00;100555.50;5041303;28;20330;-58
2021/05/25 05:54:08;;;;;;;16.23;7.15;;;;;;;8.83;100.00;100564.31;5040072;28;20049;-58
2021/05/25 05:56:36;;;;;;;10.38;6.72;;;;;;;9.28;100.00;100560.53;5040570;28;20041;-59
2021/05/25 05:59:03;;;;;;;11.82;7.40;;;;;;;9.10;100.00;100568.59;5039578;28;20045;-59
2021/05/25 06:01:31;;;;;;;9.05;5.45;;;;;;;8.76;100.00;100577.41;5043401;28;20056;-58
2021/05/25 06:03:59;;;;;;;7.72;4.72;;;;;;;8.70;100.00;100572.72;5043215;28;20048;-58
2021/05/25 06:06:28;;;;;;;8.52;4.18;;;;;;;8.58;100.00;100596.94;5036473;28;20113;-58
2021/05/25 06:08:55;;;;;;;8.32;4.47;;;;;;;8.79;100.00;100587.78;5046192;28;20452;-58
2021/05/25 06:11:22;;;;;;;9.32;4.18;;;;;;;8.81;100.00;100591.09;5040275;28;20041;-58
2021/05/25 06:13:51;;;;;;;5.63;4.10;;;;;;;9.08;100.00;100597.25;5043260;28;20045;-58
2021/05/25 06:16:18;;;;;;;8.40;4.13;;;;;;;9.07;100.00;100598.22;5039314;28;20040;-58
2021/05/25 06:18:45;;;;;;;7.72;3.72;;;;;;;9.07;100.00;100617.72;5040164;28;20314;-58
2021/05/25 06:21:13;;;;;;;7.18;5.22;;;;;;;8.81;100.00;100616.91;5042943;28;20049;-59
2021/05/25 06:23:40;;;;;;;9.30;5.43;;;;;;;8.84;100.00;100617.41;5039695;28;20065;-58
2021/05/25 06:26:08;;;;;;;9.95;6.20;;;;;;;9.08;100.00;100629.22;5039618;28;20068;-58
2021/05/25 06:28:35;;;;;;;11.85;5.57;;;;;;;9.22;100.00;100623.28;5038994;28;20053;-58
2021/05/25 06:31:04;;;;;;;8.27;5.00;;;;;;;9.40;100.00;100627.69;5038587;28;20106;-59
2021/05/25 06:33:31;;;;;;;12.75;5.80;;;;;;;9.55;100.00;100639.41;5040305;28;20424;-59
2021/05/25 06:35:58;;;;;;;8.23;5.30;;;;;;;9.52;100.00;100636.25;5040190;28;20626;-59
2021/05/25 06:38:26;;;;;;;10.25;5.22;;;;;;;9.72;100.00;100639.47;5044147;28;20045;-59
2021/05/25 06:40:53;;;;;;;6.95;4.78;;;;;;;9.92;100.00;100646.22;5042802;28;20068;-58
2021/05/25 06:43:21;;;;;;;6.38;4.38;;;;;;;9.93;100.00;100636.38;5038887;28;20060;-59
2021/05/25 06:45:48;;;;;;;10.70;4.13;;;;;;;10.54;100.00;100647.66;5035974;28;20051;-59
2021/05/25 06:48:17;;;;;;;6.50;4.35;;;;;;;10.15;100.00;100656.28;5038287;28;20045;-59
2021/05/25 06:50:44;;;;;;;7.82;3.90;;;;;;;10.48;100.00;100653.66;5043134;28;20045;-59
2021/05/25 06:53:12;;;;;;;10.27;4.03;;;;;;;10.25;100.00;100667.63;5039749;28;20048;-59
2021/05/25 06:55:39;;;;;;;6.70;3.70;;;;;;;10.33;100.00;100656.97;5041682;28;20506;-60
2021/05/25 06:58:07;;;;;;;6.45;3.30;;;;;;;10.29;100.00;100670.78;5039528;28;20132;-59
2021/05/25 07:00:35;;;;;;;5.97;3.10;;;;;;;10.43;100.00;100670.19;5040257;28;20096;-59
2021/05/25 07:03:03;;;;;;;8.02;3.28;;;;;;;10.32;100.00;100678.50;5041320;28;20064;-59
2021/05/25 07:05:32;;;;;;;5.93;3.00;;;;;;;10.26;100.00;100681.78;5037239;28;20073;-59
2021/05/25 07:07:59;;;;;;;8.05;3.58;;;;;;;10.13;100.00;100693.75;5040672;28;20059;-59
2021/05/25 07:10:27;;;;;;;6.90;3.45;;;;;;;10.78;100.00;100691.38;5041686;28;20055;-59
2021/05/25 07:12:54;;;;;;;6.85;2.95;;;;;;;11.04;100.00;100696.53;5045029;28;20061;-60
2021/05/25 07:15:22;;;;;;;9.20;4.07;;;;;;;12.44;100.00;100697.84;5038674;28;20460;-60
2021/05/25 07:17:55;;;;;;;6.13;3.63;;;;;;;11.31;100.00;100703.34;5045569;28;20333;-63
2021/05/25 07:20:23;;;;;;;7.47;3.30;;;;;;;11.62;100.00;100694.53;5042897;28;20125;-60
2021/05/25 07:22:53;;;;;;;6.05;2.75;;;;;;;11.88;100.00;100698.81;5040821;28;20045;-61
2021/05/25 07:25:22;;;;;;;4.47;2.20;;;;;;;12.90;100.00;100708.53;5036556;28;20045;-60
2021/05/25 07:27:50;;;;;;;5.63;2.45;;;;;;;12.41;100.00;100709.72;5041785;28;20045;-60
2021/05/25 07:30:18;;;;;;;7.85;2.78;;;;;;;12.72;100.00;100716.88;5040258;28;20053;-60
2021/05/25 07:32:46;;;;;;;6.97;2.40;;;;;;;12.62;100.00;100714.44;5042866;28;20049;-57
2021/05/25 07:35:14;;;;;;;4.57;2.20;;;;;;;13.72;100.00;100718.44;5038448;28;20071;-57
2021/05/25 07:37:42;;;;;;;8.07;3.47;;;;;;;12.52;100.00;100728.06;5040104;28;20499;-57
2021/05/25 07:40:12;;;;;;;6.45;2.30;;;;;;;13.68;100.00;100724.34;5037256;28;20049;-58
2021/05/25 07:42:39;;;;;;;8.43;2.67;;;;;;;13.13;100.00;100719.19;5039523;28;20055;-57
2021/05/25 07:45:07;;;;;;;4.63;1.67;;;;;;;13.48;100.00;100721.38;5040198;28;20046;-57
2021/05/25 07:47:35;;;;;;;4.30;2.97;;;;;;;13.55;100.00;100722.31;5038839;28;20704;-54
2021/05/25 07:50:13;;;;;;;4.13;2.03;;;;;;;13.47;100.00;100733.13;5039572;28;20041;-56
2021/05/25 07:52:42;;;;;;;5.50;1.85;;;;;;;13.10;100.00;100746.38;5037819;28;20045;-55
2021/05/25 07:55:13;;;;;;;3.92;2.17;;;;;;;13.45;100.00;100737.84;5034273;28;20053;-57
2021/05/25 07:57:41;;;;;;;5.25;2.80;;;;;;;13.24;100.00;100742.88;5039532;28;20044;-57
2021/05/25 08:00:12;;;;;;;5.60;2.08;;;;;;;13.42;100.00;100745.25;5039079;28;20041;-58
2021/05/25 08:02:40;;;;;;;3.72;1.90;;;;;;;13.16;100.00;100742.13;5040942;28;20049;-57
2021/05/25 08:05:10;;;;;;;4.65;2.17;;;;;;;13.69;100.00;100745.63;5034321;28;20048;-57
2021/05/25 08:07:38;;;;;;;5.45;2.13;;;;;;;13.33;100.00;100743.63;5036563;28;20045;-58
2021/05/25 08:10:08;;;;;;;12.05;4.10;;;;;;;12.35;100.00;100748.75;5039093;28;20334;-57
2021/05/25 08:12:37;;;;;;;6.22;3.08;;;;;;;13.40;100.00;100741.91;5040501;28;20037;-57
2021/05/25 08:15:06;;;;;;;5.45;2.22;;;;;;;14.46;100.00;100746.97;5040168;28;20443;-57
2021/05/25 08:17:46;;;;;;;6.82;2.67;;;;;;;14.20;100.00;100752.88;5038449;28;20107;-57
2021/05/25 08:20:16;;;;;;;4.28;1.60;;;;;;;15.02;100.00;100755.41;5036096;28;20091;-57
2021/05/25 08:23:06;;;;;;;5.25;2.30;;;;;;;14.12;100.00;100761.88;5035704;28;20123;-57
2021/05/25 08:25:34;;;;;;;5.60;2.05;;;;;;;14.31;100.00;100758.78;5037482;28;20043;-57
2021/05/25 08:28:04;;;;;;;4.07;1.75;;;;;;;14.27;100.00;100755.66;5038894;28;20053;-57
2021/05/25 08:30:37;;;;;;;5.68;2.10;;;;;;;14.03;100.00;100763.00;5041912;28;20049;-57
2021/05/25 08:33:06;;;;;;;3.80;1.73;;;;;;;14.66;100.00;100758.97;5042154;28;20042;-57
2021/05/25 08:35:38;;;;;;;7.93;2.30;;;;;;;13.77;100.00;100764.31;5039857;28;20045;-57
2021/05/25 08:38:07;;;;;;;3.33;1.85;;;;;;;13.46;100.00;100771.72;5042194;28;20115;-57
2021/05/25 08:40:37;;;;;;;7.32;1.90;;;;;;;12.96;100.00;100776.66;5041577;28;20042;-57
2021/05/25 08:43:06;;;;;;;5.68;2.00;;;;;;;13.30;100.00;100770.81;5048496;28;20072;-57
2021/05/25 08:45:33;;;;;;;5.63;2.00;;;;;;;13.04;100.00;100785.47;5038970;28;20049;-56
2021/05/25 08:48:01;;;;;;;4.15;1.90;;;;;;;14.05;100.00;100785.13;5045957;28;20140;-57
2021/05/25 08:50:48;;;;;;;6.53;2.50;;;;;;;13.36;100.00;100780.84;5046066;28;20056;-57
2021/05/25 08:53:16;;;;;;;7.00;2.20;;;;;;;13.70;100.00;100782.19;5040666;28;20053;-57
2021/05/25 08:55:47;;;;;;;6.30;2.63;;;;;;;14.39;100.00;100781.00;5043819;28;20478;-58
2021/05/25 08:58:16;;;;;;;6.43;2.72;;;;;;;13.99;100.00;100777.84;5042380;28;20475;-58
2021/05/25 09:00:43;;;;;;;5.78;2.10;;;;;;;13.74;100.00;100783.47;5044560;28;20112;-58
2021/05/25 09:03:11;;;;;;;6.85;2.67;;;;;;;13.09;100.00;100777.69;5047075;28;20052;-58
2021/05/25 09:05:48;;;;;;;4.80;1.77;;;;;;;13.73;100.00;100768.38;5043347;28;20049;-58
2021/05/25 09:08:15;;;;;;;7.25;2.10;;;;;;;13.61;100.00;100780.63;5043549;28;20060;-57
2021/05/25 09:10:46;;;;;;;6.20;2.30;;;;;;;15.36;100.00;100768.06;5043262;28;20052;-58
2021/05/25 09:13:17;;;;;;;7.53;2.50;;;;;;;14.99;100.00;100770.06;5044881;28;20049;-57
2021/05/25 09:15:46;;;;;;;9.05;2.80;;;;;;;14.70;100.00;100771.88;5041058;28;20061;-58
2021/05/25 09:18:15;;;;;;;5.50;1.70;;;;;;;13.27;100.00;100758.59;5040912;28;20357;-58
2021/05/25 09:20:48;;;;;;;7.65;1.77;;;;;;;12.78;100.00;100760.88;5044431;28;20050;-58
2021/05/25 09:23:17;;;;;;;5.78;1.70;;;;;;;12.36;100.00;100760.28;5041810;28;20040;-58
2021/05/25 09:25:54;;;;;;;6.75;2.30;;;;;;;11.92;100.00;100777.69;5038254;28;20048;-58
2021/05/25 09:28:22;;;;;;;7.57;2.10;;;;;;;11.80;100.00;100779.09;5043508;28;20045;-61
2021/05/25 09:30:51;;;;;;;6.85;2.22;;;;;;;11.66;100.00;100776.09;5041024;28;20052;-58
2021/05/25 09:33:22;;;;;;;8.77;2.22;;;;;;;11.43;100.00;100785.88;5041177;28;20111;-59
2021/05/25 09:35:50;;;;;;;6.03;2.55;;;;;;;11.39;100.00;100780.00;5038875;28;20064;-58
2021/05/25 09:38:20;;;;;;;9.55;2.47;;;;;;;11.41;100.00;100785.19;5046917;28;20041;-59
2021/05/25 09:40:49;;;;;;;8.30;2.22;;;;;;;11.34;100.00;100788.53;5044906;28;20124;-59
2021/05/25 09:43:19;;;;;;;12.10;2.97;;;;;;;11.77;100.00;100777.59;5045322;28;20412;-58
2021/05/25 09:46:13;;;;;;;5.40;2.10;;;;;;;12.22;100.00;100786.00;5042156;28;20045;-58
2021/05/25 09:48:53;;;;;;;5.47;2.30;;;;;;;12.43;100.00;100777.31;5018152;28;20049;-58
2021/05/25 09:51:22;;;;;;;9.55;2.67;;;;;;;12.77;100.00;100775.28;5040167;28;20041;-58
2021/05/25 09:53:55;;;;;;;9.65;2.00;;;;;;;13.47;100.00;100776.91;5043264;28;20120;-58
2021/05/25 09:56:24;;;;;;;3.80;1.50;;;;;;;13.85;100.00;100781.34;5039334;28;20798;-58
2021/05/25 09:58:52;;;;;;;11.50;2.47;;;;;;;14.10;100.00;100755.88;5043759;28;20038;-58
2021/05/25 10:01:20;;;;;;;3.03;1.30;;;;;;;14.80;100.00;100779.59;5043295;28;20045;-60
2021/05/25 10:03:50;;;;;;;7.20;1.70;;;;;;;14.23;100.00;100768.63;5040130;28;20441;-57
2021/05/25 10:06:18;;;;;;;4.03;1.45;;;;;;;15.02;100.00;100772.34;5039640;28;20515;-57
2021/05/25 10:08:46;;;;;;;4.40;1.48;;;;;;;15.58;100.00;100771.53;5040079;28;20045;-57
2021/05/25 10:11:16;;;;;;;7.07;1.70;;;;;;;14.50;100.00;100779.69;5040004;28;20048;-57
2021/05/25 10:13:43;;;;;;;16.48;2.92;;;;;;;13.93;100.00;100763.31;5040286;28;21224;-57
2021/05/25 10:16:13;;;;;;;4.88;1.70;;;;;;;14.78;100.00;100777.09;5041276;28;20758;-57
2021/05/25 10:19:00;;;;;;;6.32;1.40;;;;;;;15.40;100.00;100780.09;5042717;28;20314;-57
2021/05/25 10:21:27;;;;;;;7.72;1.92;;;;;;;16.09;100.00;100777.63;5042267;28;20041;-57
2021/05/25 10:24:00;;;;;;;5.80;1.35;;;;;;;14.84;100.00;100775.50;5041606;28;20107;-58
2021/05/25 10:26:28;;;;;;;4.20;1.30;;;;;;;14.01;100.00;100767.72;5039283;28;20453;-56
2021/05/25 10:28:56;;;;;;;8.43;1.50;;;;;;;14.09;100.00;100782.88;5040573;28;21453;-57
2021/05/25 10:31:28;;;;;;;8.18;2.42;;;;;;;14.41;100.00;100787.00;5040383;28;20052;-57
2021/05/25 10:34:16;;;;;;;9.02;1.42;;;;;;;15.01;100.00;100789.50;5038562;28;20045;-57
2021/05/25 10:36:45;;;;;;;4.63;1.73;;;;;;;15.67;100.00;100793.75;5037580;28;20448;-58
2021/05/25 10:39:35;;;;;;;3.10;1.42;;;;;;;15.23;100.00;100800.25;5041105;28;20432;-57
2021/05/25 10:42:29;;;;;;;6.68;2.55;;;;;;;15.01;100.00;100789.50;5040949;28;20059;-57
2021/05/25 10:45:17;;;;;;;6.15;1.75;;;;;;;15.54;100.00;100790.97;5039364;28;20085;-60
2021/05/25 10:47:59;;;;;;;8.68;3.63;;;;;;;14.80;100.00;100795.75;5041712;28;20049;-57
2021/05/25 10:50:32;;;;;;;26.25;12.40;;;;;;;14.15;100.00;100792.06;5036372;28;20045;-57
2021/05/25 10:53:23;;;;;;;5.05;1.60;;;;;;;14.81;100.00;100805.44;5042074;28;20057;-57
2021/05/25 10:55:51;;;;;;;8.05;2.22;;;;;;;14.95;100.00;100803.72;5040791;28;20045;-57
2021/05/25 10:58:30;;;;;;;3.10;1.50;;;;;;;14.55;100.00;100803.28;5041108;28;20051;-56
2021/05/25 11:01:03;;;;;;;5.72;4.05;;;;;;;14.28;100.00;100811.03;5040410;28;20071;-59
2021/05/25 11:03:31;;;;;;;7.60;2.92;;;;;;;13.89;100.00;100813.00;5036383;28;20037;-57
2021/05/25 11:06:00;;;;;;;5.15;3.20;;;;;;;13.52;100.00;100820.06;5034867;28;20052;-56
2021/05/25 11:08:35;;;;;;;7.70;1.83;;;;;;;13.82;100.00;100811.25;5039280;28;20041;-56
2021/05/25 11:11:11;;;;;;;5.20;2.03;;;;;;;14.22;100.00;100814.47;5040304;28;20140;-56
2021/05/25 11:13:41;;;;;;;5.47;1.40;;;;;;;14.61;100.00;100818.66;5040409;28;20383;-56
2021/05/25 11:16:12;;;;;;;5.20;1.75;;;;;;;14.62;100.00;100818.47;5036443;28;20048;-57
2021/05/25 11:18:44;;;;;;;5.53;2.45;;;;;;;14.75;100.00;100820.47;5041695;28;20056;-59
2021/05/25 11:22:05;;;;;;;4.57;1.27;;;;;;;15.05;100.00;100812.28;5041824;28;20045;-56
2021/05/25 11:24:35;;;;;;;9.77;1.90;;;;;;;14.06;100.00;100813.66;5041043;28;20045;-57
2021/05/25 11:27:07;;;;;;;2.65;1.17;;;;;;;14.56;100.00;100811.16;5039832;28;20429;-57
2021/05/25 11:29:36;;;;;;;6.78;1.65;;;;;;;14.56;100.00;100821.06;5040969;28;20048;-56
2021/05/25 11:32:13;;;;;;;8.52;1.77;;;;;;;13.90;100.00;100832.63;5034987;28;20084;-57